createdAt,value
2023-05-01T00:00:33.896Z,76.99
2023-05-01T00:01:25.488Z,75.81
2023-05-01T00:02:16.973Z,76.27
2023-05-01T00:03:08.503Z,76.26
2023-05-01T00:04:00.164Z,76.46
2023-05-01T00:04:51.753Z,75.13
2023-05-01T00:05:46.388Z,77.33
2023-05-01T00:06:37.900Z,75.08
2023-05-01T00:07:31.028Z,76.23
2023-05-01T00:08:22.580Z,78.48
2023-05-01T00:09:14.089Z,76.54
2023-05-01T00:10:06.310Z,77.37
2023-05-01T00:11:03.407Z,76.90
2023-05-01T00:11:54.941Z,77.27
2023-05-01T00:12:46.517Z,78.20
2023-05-01T00:13:38.185Z,77.30
2023-05-01T00:14:32.231Z,76.84
2023-05-01T00:15:23.697Z,76.03
2023-05-01T00:16:17.006Z,77.23
2023-05-01T00:17:08.661Z,76.64
2023-05-01T00:18:00.289Z,77.02
2023-05-01T00:18:52.505Z,77.52
2023-05-01T00:19:44.057Z,79.85
2023-05-01T00:20:35.544Z,78.39
2023-05-01T00:21:28.732Z,78.01
2023-05-01T00:22:20.429Z,76.97
2023-05-01T00:23:12.413Z,77.71
2023-05-01T00:24:04.121Z,76.67
2023-05-01T00:24:55.584Z,77.77
2023-05-01T00:25:47.137Z,76.77
2023-05-01T00:26:38.670Z,77.71
2023-05-01T00:27:34.907Z,78.95
2023-05-01T00:28:26.463Z,79.63
2023-05-01T00:29:18.060Z,78.25
2023-05-01T00:30:09.958Z,76.68
2023-05-01T00:31:01.506Z,78.11
2023-05-01T00:31:54.654Z,77.44
2023-05-01T00:32:46.163Z,76.40
2023-05-01T00:33:37.680Z,76.58
2023-05-01T00:34:30.150Z,77.30
2023-05-01T00:35:21.727Z,77.37
2023-05-01T00:36:13.264Z,78.21
2023-05-01T00:37:05.009Z,77.66
2023-05-01T00:38:02.611Z,74.70
2023-05-01T00:38:54.088Z,77.46
2023-05-01T00:39:45.690Z,76.48
2023-05-01T00:40:47.414Z,77.61
2023-05-01T00:41:38.921Z,77.51
2023-05-01T00:42:39.188Z,76.91
2023-05-01T00:43:30.872Z,77.15
2023-05-01T00:44:22.536Z,77.99
2023-05-01T00:45:14.450Z,77.59
2023-05-01T00:46:07.999Z,77.61
2023-05-01T00:47:02.132Z,79.43
2023-05-01T00:47:55.747Z,79.14
2023-05-01T00:48:47.501Z,79.03
2023-05-01T00:49:42.834Z,78.10
2023-05-01T00:50:34.366Z,79.82
2023-05-01T00:51:29.054Z,80.52
2023-05-01T00:52:20.733Z,78.77
2023-05-01T00:53:12.641Z,77.63
2023-05-01T00:54:05.721Z,78.74
2023-05-01T00:54:58.538Z,79.98
2023-05-01T00:55:50.850Z,79.99
2023-05-01T00:56:43.255Z,79.19
2023-05-01T00:57:34.932Z,78.84
2023-05-01T00:58:26.959Z,79.06
2023-05-01T00:59:18.576Z,77.76
2023-05-01T01:00:12.392Z,78.32
2023-05-01T01:01:05.150Z,78.01
2023-05-01T01:01:57.515Z,79.05
2023-05-01T01:02:49.232Z,78.03
2023-05-01T01:03:43.212Z,80.23
2023-05-01T01:04:34.807Z,79.26
2023-05-01T01:05:32.615Z,78.08
2023-05-01T01:06:34.168Z,78.12
2023-05-01T01:07:47.195Z,79.22
2023-05-01T01:08:44.722Z,79.56
2023-05-01T01:09:59.405Z,80.16
2023-05-01T01:11:09.633Z,79.96
2023-05-01T01:12:11.127Z,79.58
2023-05-01T01:13:28.982Z,79.29
2023-05-01T01:15:08.532Z,79.82
2023-05-01T01:16:23.508Z,80.23
2023-05-01T01:17:31.691Z,79.97
2023-05-01T01:18:44.653Z,80.01
2023-05-01T01:19:36.483Z,80.30
2023-05-01T01:20:46.498Z,79.94
2023-05-01T01:21:55.304Z,80.58
2023-05-01T01:23:01.010Z,79.93
2023-05-01T01:24:34.580Z,79.67
2023-05-01T01:25:33.360Z,79.17
2023-05-01T01:26:35.933Z,80.74
2023-05-01T01:27:58.210Z,79.93
2023-05-01T01:29:37.212Z,78.46
2023-05-01T01:31:06.536Z,79.76
2023-05-01T01:32:17.222Z,78.74
2023-05-01T01:33:37.805Z,79.61
2023-05-01T01:34:36.289Z,79.33
2023-05-01T01:35:30.980Z,80.37
2023-05-01T01:36:37.282Z,79.90
2023-05-01T01:37:43.707Z,80.08
2023-05-01T01:38:43.628Z,80.03
2023-05-01T01:40:05.212Z,80.03
2023-05-01T01:41:16.148Z,79.21
2023-05-01T01:42:18.206Z,80.26
2023-05-01T01:43:15.109Z,79.49
2023-05-01T01:44:20.688Z,79.78
2023-05-01T01:45:32.812Z,76.95
2023-05-01T01:46:27.304Z,78.76
2023-05-01T01:47:21.968Z,79.63
2023-05-01T01:48:19.033Z,80.02
2023-05-01T01:49:20.759Z,80.15
2023-05-01T01:50:15.750Z,81.81
2023-05-01T01:51:14.448Z,81.88
2023-05-01T01:52:14.364Z,79.66
2023-05-01T01:53:10.052Z,79.96
2023-05-01T01:54:08.374Z,80.32
2023-05-01T01:55:07.546Z,79.97
2023-05-01T01:56:04.228Z,81.00
2023-05-01T01:56:59.478Z,80.12
2023-05-01T01:57:53.483Z,80.28
2023-05-01T01:58:48.209Z,80.15
2023-05-01T01:59:42.675Z,80.85
2023-05-01T02:00:36.109Z,80.00
2023-05-01T02:01:29.685Z,80.73
2023-05-01T02:02:23.795Z,80.73
2023-05-01T02:03:17.826Z,81.17
2023-05-01T02:04:13.402Z,81.17
2023-05-01T02:05:11.387Z,80.76
2023-05-01T02:06:06.652Z,80.30
2023-05-01T02:07:02.880Z,80.59
2023-05-01T02:07:59.022Z,80.85
2023-05-01T02:08:53.226Z,81.26
2023-05-01T02:09:53.830Z,80.57
2023-05-01T02:10:48.554Z,81.98
2023-05-01T02:11:41.822Z,81.42
2023-05-01T02:12:35.366Z,81.06
2023-05-01T02:13:33.307Z,80.77
2023-05-01T02:14:27.501Z,80.13
2023-05-01T02:15:21.146Z,81.20
2023-05-01T02:16:14.999Z,81.29
2023-05-01T02:17:09.572Z,80.70
2023-05-01T02:18:06.467Z,81.04
2023-05-01T02:19:00.161Z,81.82
2023-05-01T02:19:55.109Z,82.39
2023-05-01T02:20:47.795Z,81.72
2023-05-01T02:21:39.676Z,81.37
2023-05-01T02:22:32.182Z,81.11
2023-05-01T02:23:26.105Z,81.25
2023-05-01T02:24:22.591Z,81.21
2023-05-01T02:25:15.345Z,80.65
2023-05-01T02:26:16.875Z,81.26
2023-05-01T02:27:24.285Z,80.62
2023-05-01T02:28:23.534Z,81.24
2023-05-01T02:29:15.037Z,81.11
2023-05-01T02:30:08.067Z,80.56
2023-05-01T02:30:59.883Z,80.92
2023-05-01T02:31:52.644Z,81.26
2023-05-01T02:32:44.982Z,81.31
2023-05-01T02:33:38.854Z,81.80
2023-05-01T02:34:30.669Z,81.44
2023-05-01T02:35:22.171Z,81.89
2023-05-01T02:36:13.966Z,80.77
2023-05-01T02:37:10.951Z,81.44
2023-05-01T02:38:03.033Z,80.86
2023-05-01T02:38:55.310Z,80.27
2023-05-01T02:39:47.124Z,80.92
2023-05-01T02:40:40.386Z,81.86
2023-05-01T02:41:34.763Z,81.88
2023-05-01T02:42:29.342Z,80.90
2023-05-01T02:43:23.060Z,81.72
2023-05-01T02:44:17.686Z,80.84
2023-05-01T02:45:19.112Z,81.00
2023-05-01T02:46:14.167Z,81.18
2023-05-01T02:47:09.044Z,81.17
2023-05-01T02:48:05.385Z,81.56
2023-05-01T02:49:02.844Z,81.47
2023-05-01T02:49:56.353Z,81.73
2023-05-01T02:50:50.847Z,81.14
2023-05-01T02:51:44.003Z,81.36
2023-05-01T02:52:37.412Z,80.88
2023-05-01T02:53:50.699Z,81.40
2023-05-01T02:54:47.305Z,81.59
2023-05-01T02:55:39.549Z,81.76
2023-05-01T02:56:31.541Z,83.16
2023-05-01T02:57:23.730Z,82.59
2023-05-01T02:58:19.464Z,81.64
2023-05-01T02:59:11.335Z,81.75
2023-05-01T03:00:03.370Z,82.34
2023-05-01T03:00:55.231Z,82.27
2023-05-01T03:01:46.851Z,80.94
2023-05-01T03:02:38.453Z,81.66
2023-05-01T03:03:30.112Z,81.32
2023-05-01T03:04:21.687Z,80.97
2023-05-01T03:05:13.756Z,80.88
2023-05-01T03:06:05.433Z,81.64
2023-05-01T03:06:57.143Z,81.72
2023-05-01T03:07:48.793Z,81.79
2023-05-01T03:08:40.648Z,81.22
2023-05-01T03:09:32.165Z,81.64
2023-05-01T03:10:23.763Z,81.63
2023-05-01T03:11:15.673Z,81.78
2023-05-01T03:12:07.449Z,82.38
2023-05-01T03:12:58.938Z,82.50
2023-05-01T03:13:52.018Z,82.29
2023-05-01T03:14:43.494Z,81.04
2023-05-01T03:15:35.001Z,80.95
2023-05-01T03:16:26.934Z,81.96
2023-05-01T03:17:20.832Z,81.21
2023-05-01T03:18:12.351Z,81.30
2023-05-01T03:19:06.621Z,81.44
2023-05-01T03:20:00.667Z,81.36
2023-05-01T03:20:58.130Z,82.16
2023-05-01T03:21:51.118Z,81.78
2023-05-01T03:22:42.669Z,81.85
2023-05-01T03:23:34.125Z,81.89
2023-05-01T03:24:25.581Z,82.51
2023-05-01T03:25:17.179Z,82.37
2023-05-01T03:26:08.642Z,82.26
2023-05-01T03:27:00.366Z,82.71
2023-05-01T03:27:54.947Z,83.10
2023-05-01T03:28:47.065Z,82.38
2023-05-01T03:29:38.674Z,83.38
2023-05-01T03:30:30.236Z,82.92
2023-05-01T03:31:21.844Z,83.11
2023-05-01T03:32:16.886Z,83.06
2023-05-01T03:33:10.310Z,83.35
2023-05-01T03:34:02.181Z,83.23
2023-05-01T03:34:53.825Z,83.56
2023-05-01T03:35:46.210Z,83.50
2023-05-01T03:36:38.313Z,84.23
2023-05-01T03:37:30.636Z,84.16
2023-05-01T03:38:24.366Z,84.65
2023-05-01T03:39:34.038Z,83.99
2023-05-01T03:40:44.278Z,83.97
2023-05-01T03:41:56.305Z,84.24
2023-05-01T03:42:53.921Z,84.12
2023-05-01T03:43:48.368Z,83.80
2023-05-01T03:44:53.752Z,83.63
2023-05-01T03:45:45.383Z,83.13
2023-05-01T03:46:39.400Z,84.08
2023-05-01T03:47:32.551Z,83.66
2023-05-01T03:48:24.724Z,84.14
2023-05-01T03:49:16.789Z,83.85
2023-05-01T03:50:12.881Z,83.67
2023-05-01T03:51:08.727Z,83.75
2023-05-01T03:52:01.511Z,83.92
2023-05-01T03:52:55.536Z,83.17
2023-05-01T03:53:47.513Z,83.63
2023-05-01T03:54:41.385Z,83.87
2023-05-01T03:55:50.263Z,83.98
2023-05-01T03:56:41.723Z,84.03
2023-05-01T03:57:33.924Z,84.08
2023-05-01T03:58:26.037Z,84.03
2023-05-01T03:59:18.073Z,84.78
2023-05-01T04:00:11.730Z,84.74
2023-05-01T04:01:13.507Z,83.97
2023-05-01T04:02:10.673Z,84.55
2023-05-01T04:03:04.164Z,84.32
2023-05-01T04:03:57.981Z,84.89
2023-05-01T04:04:49.976Z,85.29
2023-05-01T04:05:43.869Z,84.71
2023-05-01T04:06:36.873Z,85.42
2023-05-01T04:07:31.260Z,85.42
2023-05-01T04:08:22.911Z,86.20
2023-05-01T04:09:14.349Z,86.69
2023-05-01T04:10:08.040Z,85.71
2023-05-01T04:11:01.587Z,85.92
2023-05-01T04:11:53.108Z,85.83
2023-05-01T04:12:44.671Z,85.25
2023-05-01T04:13:38.464Z,85.71
2023-05-01T04:14:30.019Z,85.77
2023-05-01T04:15:22.579Z,87.00
2023-05-01T04:16:14.350Z,85.75
2023-05-01T04:17:06.080Z,85.69
2023-05-01T04:18:01.562Z,86.01
2023-05-01T04:18:53.188Z,85.36
2023-05-01T04:19:44.715Z,86.06
2023-05-01T04:20:36.378Z,85.06
2023-05-01T04:21:27.817Z,85.38
2023-05-01T04:22:19.622Z,84.99
2023-05-01T04:23:12.641Z,85.44
2023-05-01T04:24:04.657Z,85.58
2023-05-01T04:24:56.151Z,84.73
2023-05-01T04:25:47.861Z,84.75
2023-05-01T04:26:43.058Z,85.15
2023-05-01T04:27:34.996Z,84.28
2023-05-01T04:28:27.842Z,84.88
2023-05-01T04:29:19.313Z,84.66
2023-05-01T04:30:14.034Z,84.92
2023-05-01T04:31:07.528Z,84.71
2023-05-01T04:31:59.521Z,85.91
2023-05-01T04:32:52.739Z,84.91
2023-05-01T04:33:44.197Z,85.21
2023-05-01T04:34:35.761Z,85.75
2023-05-01T04:35:28.466Z,84.85
2023-05-01T04:36:20.978Z,85.10
2023-05-01T04:37:13.863Z,84.83
2023-05-01T04:38:08.507Z,85.52
2023-05-01T04:39:02.925Z,85.12
2023-05-01T04:39:57.920Z,85.12
2023-05-01T04:40:49.675Z,85.10
2023-05-01T04:41:41.714Z,85.42
2023-05-01T04:42:33.701Z,85.84
2023-05-01T04:43:25.506Z,85.30
2023-05-01T04:44:16.979Z,85.28
2023-05-01T04:45:09.846Z,85.83
2023-05-01T04:46:04.539Z,86.46
2023-05-01T04:46:56.279Z,85.69
2023-05-01T04:47:47.903Z,86.70
2023-05-01T04:48:39.399Z,85.84
2023-05-01T04:49:31.038Z,85.25
2023-05-01T04:50:24.983Z,86.24
2023-05-01T04:51:19.798Z,85.23
2023-05-01T04:52:12.461Z,85.81
2023-05-01T04:53:16.779Z,85.87
2023-05-01T04:54:10.980Z,85.51
2023-05-01T04:55:03.883Z,86.27
2023-05-01T04:55:58.507Z,84.81
2023-05-01T04:56:50.892Z,85.61
2023-05-01T04:57:42.442Z,85.63
2023-05-01T04:58:36.417Z,85.46
2023-05-01T04:59:34.157Z,85.54
2023-05-01T05:00:29.003Z,85.77
2023-05-01T05:01:22.429Z,85.36
2023-05-01T05:02:14.301Z,85.74
2023-05-01T05:03:06.725Z,85.81
2023-05-01T05:03:58.632Z,85.85
2023-05-01T05:04:50.992Z,85.33
2023-05-01T05:05:42.585Z,85.27
2023-05-01T05:06:34.272Z,86.02
2023-05-01T05:07:25.874Z,85.51
2023-05-01T05:08:52.586Z,85.71
2023-05-01T05:09:44.761Z,85.84
2023-05-01T05:10:36.228Z,85.58
2023-05-01T05:11:52.168Z,85.17
2023-05-01T05:12:46.276Z,86.22
2023-05-01T05:13:38.995Z,85.02
2023-05-01T05:14:37.988Z,85.38
2023-05-01T05:15:31.546Z,85.84
2023-05-01T05:16:23.183Z,85.42
2023-05-01T05:17:14.800Z,87.35
2023-05-01T05:18:07.718Z,85.23
2023-05-01T05:19:02.552Z,85.49
2023-05-01T05:19:57.901Z,84.95
2023-05-01T05:20:49.782Z,83.36
2023-05-01T05:21:41.370Z,83.10
2023-05-01T05:22:37.239Z,86.16
2023-05-01T05:23:49.489Z,85.57
2023-05-01T05:24:41.002Z,83.63
2023-05-01T05:25:32.998Z,83.70
2023-05-01T05:26:26.891Z,83.30
2023-05-01T05:27:21.107Z,84.17
2023-05-01T05:28:12.783Z,83.12
2023-05-01T05:29:05.556Z,82.89
2023-05-01T05:29:57.095Z,83.33
2023-05-01T05:30:49.134Z,83.28
2023-05-01T05:31:44.050Z,83.36
2023-05-01T05:32:35.710Z,82.97
2023-05-01T05:33:29.092Z,82.19
2023-05-01T05:34:20.877Z,83.08
2023-05-01T05:35:12.584Z,82.69
2023-05-01T05:36:04.211Z,82.94
2023-05-01T05:37:01.020Z,83.82
2023-05-01T05:37:54.799Z,83.08
2023-05-01T05:38:47.236Z,83.34
2023-05-01T05:39:43.499Z,83.82
2023-05-01T05:40:35.123Z,82.80
2023-05-01T05:41:27.113Z,82.55
2023-05-01T05:42:23.843Z,81.87
2023-05-01T05:43:17.749Z,81.76
2023-05-01T05:44:09.594Z,82.10
2023-05-01T05:45:02.381Z,82.18
2023-05-01T05:46:00.891Z,82.02
2023-05-01T05:46:53.621Z,81.68
2023-05-01T05:47:53.063Z,81.49
2023-05-01T05:48:44.623Z,82.19
2023-05-01T05:49:36.542Z,80.51
2023-05-01T05:50:30.561Z,79.96
2023-05-01T05:51:23.234Z,79.39
2023-05-01T05:52:15.092Z,79.21
2023-05-01T05:53:06.678Z,79.88
2023-05-01T05:53:59.174Z,79.95
2023-05-01T05:54:51.690Z,79.56
2023-05-01T05:55:43.546Z,79.52
2023-05-01T05:56:35.079Z,79.69
2023-05-01T05:57:26.709Z,80.88
2023-05-01T05:58:23.316Z,79.18
2023-05-01T05:59:18.593Z,79.68
2023-05-01T06:00:10.805Z,79.09
2023-05-01T06:01:11.575Z,80.80
2023-05-01T06:02:07.059Z,77.97
2023-05-01T06:02:58.907Z,79.47
2023-05-01T06:03:53.316Z,81.16
2023-05-01T06:04:50.094Z,77.39
2023-05-01T06:05:44.832Z,77.59
2023-05-01T06:06:39.167Z,77.17
2023-05-01T06:07:32.699Z,77.35
2023-05-01T06:08:27.371Z,77.78
2023-05-01T06:09:19.006Z,79.17
2023-05-01T06:10:11.507Z,77.51
2023-05-01T06:11:04.448Z,78.47
2023-05-01T06:11:56.184Z,77.31
2023-05-01T06:12:58.259Z,76.68
2023-05-01T06:14:00.540Z,75.00
2023-05-01T06:14:52.524Z,75.98
2023-05-01T06:15:46.898Z,73.21
2023-05-01T06:16:39.001Z,74.37
2023-05-01T06:17:31.195Z,75.86
2023-05-01T06:18:22.833Z,74.13
2023-05-01T06:19:15.441Z,75.54
2023-05-01T06:20:08.580Z,75.27
2023-05-01T06:21:00.209Z,74.93
2023-05-01T06:21:51.912Z,76.03
2023-05-01T06:22:44.032Z,72.08
2023-05-01T06:23:46.328Z,72.82
2023-05-01T06:24:47.592Z,73.79
2023-05-01T06:25:39.889Z,73.89
2023-05-01T06:26:32.498Z,74.10
2023-05-01T06:27:24.213Z,71.61
2023-05-01T06:28:15.913Z,71.04
2023-05-01T06:29:10.015Z,71.72
2023-05-01T06:30:01.611Z,73.78
2023-05-01T06:30:57.687Z,70.27
2023-05-01T06:31:51.138Z,70.47
2023-05-01T06:32:43.692Z,71.84
2023-05-01T06:33:36.021Z,72.07
2023-05-01T06:34:38.491Z,72.45
2023-05-01T06:35:29.959Z,75.00
2023-05-01T06:36:21.604Z,75.22
2023-05-01T06:37:13.101Z,68.89
2023-05-01T06:38:04.901Z,72.80
2023-05-01T06:38:56.524Z,74.95
2023-05-01T06:39:48.341Z,70.96
2023-05-01T06:40:40.435Z,70.50
2023-05-01T06:41:32.836Z,69.82
2023-05-01T06:42:24.341Z,71.75
2023-05-01T06:43:17.993Z,72.67
2023-05-01T06:44:10.488Z,68.87
2023-05-01T06:45:03.862Z,71.00
2023-05-01T06:45:55.766Z,69.92
2023-05-01T06:46:47.418Z,68.77
2023-05-01T06:47:41.003Z,70.64
2023-05-01T06:48:33.567Z,69.86
2023-05-01T06:49:25.101Z,69.55
2023-05-01T06:50:18.944Z,64.66
2023-05-01T06:51:10.445Z,68.22
2023-05-01T06:52:02.125Z,67.58
2023-05-01T06:52:53.585Z,67.45
2023-05-01T06:53:45.228Z,72.25
2023-05-01T06:54:36.846Z,67.61
2023-05-01T06:55:31.813Z,70.03
2023-05-01T06:56:24.354Z,68.40
2023-05-01T06:57:15.899Z,68.36
2023-05-01T06:58:22.827Z,72.88
2023-05-01T06:59:15.876Z,72.89
2023-05-01T07:00:08.272Z,72.78
2023-05-01T07:01:03.056Z,69.16
2023-05-01T07:01:54.585Z,70.27
2023-05-01T07:02:49.225Z,65.58
2023-05-01T07:03:40.803Z,63.72
2023-05-01T07:04:32.437Z,65.09
2023-05-01T07:05:23.947Z,64.15
2023-05-01T07:06:15.534Z,64.42
2023-05-01T07:07:07.063Z,68.06
2023-05-01T07:08:01.681Z,64.15
2023-05-01T07:08:53.553Z,66.11
2023-05-01T07:09:45.180Z,67.43
2023-05-01T07:10:36.779Z,65.09
2023-05-01T07:11:28.266Z,65.68
2023-05-01T07:12:22.281Z,66.81
2023-05-01T07:13:13.785Z,71.99
2023-05-01T07:14:05.279Z,67.81
2023-05-01T07:14:56.937Z,69.66
2023-05-01T07:15:49.087Z,69.63
2023-05-01T07:16:41.284Z,65.30
2023-05-01T07:17:35.239Z,70.22
2023-05-01T07:18:26.884Z,62.28
2023-05-01T07:19:18.658Z,62.34
2023-05-01T07:20:13.876Z,61.79
2023-05-01T07:21:05.674Z,66.39
2023-05-01T07:21:57.211Z,66.51
2023-05-01T07:22:48.712Z,62.06
2023-05-01T07:23:40.221Z,63.47
2023-05-01T07:24:31.769Z,60.77
2023-05-01T07:25:23.628Z,64.42
2023-05-01T07:26:15.161Z,62.05
2023-05-01T07:27:06.744Z,64.66
2023-05-01T07:28:00.746Z,60.88
2023-05-01T07:28:52.268Z,65.07
2023-05-01T07:29:44.527Z,67.22
2023-05-01T07:30:37.320Z,66.26
2023-05-01T07:31:28.866Z,63.58
2023-05-01T07:32:21.607Z,63.68
2023-05-01T07:33:13.207Z,59.65
2023-05-01T07:34:04.841Z,63.40
2023-05-01T07:34:59.050Z,62.74
2023-05-01T07:35:50.707Z,63.32
2023-05-01T07:36:44.203Z,59.41
2023-05-01T07:37:35.696Z,58.66
2023-05-01T07:38:31.327Z,66.82
2023-05-01T07:39:22.908Z,61.89
2023-05-01T07:40:14.564Z,57.33
2023-05-01T07:41:06.179Z,60.91
2023-05-01T07:42:00.012Z,59.84
2023-05-01T07:42:54.362Z,64.54
2023-05-01T07:43:46.097Z,59.84
2023-05-01T07:44:37.570Z,62.53
2023-05-01T07:45:29.064Z,56.41
2023-05-01T07:46:20.718Z,57.50
2023-05-01T07:47:12.268Z,62.57
2023-05-01T07:48:04.880Z,60.35
2023-05-01T07:48:56.789Z,61.75
2023-05-01T07:49:51.024Z,61.12
2023-05-01T07:50:43.093Z,61.22
2023-05-01T07:51:34.999Z,58.03
2023-05-01T07:52:26.750Z,58.40
2023-05-01T07:53:18.536Z,59.67
2023-05-01T07:54:11.700Z,59.57
2023-05-01T07:55:03.657Z,61.78
2023-05-01T07:56:04.834Z,57.72
2023-05-01T07:56:56.347Z,58.13
2023-05-01T07:57:48.063Z,61.01
2023-05-01T07:58:41.506Z,61.88
2023-05-01T07:59:33.100Z,61.84
2023-05-01T08:00:25.634Z,64.08
2023-05-01T08:01:17.264Z,56.02
2023-05-01T08:02:08.930Z,55.30
2023-05-01T08:03:00.703Z,60.17
2023-05-01T08:03:52.437Z,57.96
2023-05-01T08:04:44.347Z,63.14
2023-05-01T08:05:35.855Z,54.50
2023-05-01T08:06:28.189Z,58.27
2023-05-01T08:07:20.726Z,54.40
2023-05-01T08:08:13.244Z,58.54
2023-05-01T08:09:04.705Z,57.75
2023-05-01T08:09:58.471Z,58.18
2023-05-01T08:10:52.496Z,55.17
2023-05-01T08:11:43.994Z,61.82
2023-05-01T08:12:35.518Z,59.22
2023-05-01T08:13:27.089Z,58.92
2023-05-01T08:14:19.340Z,58.64
2023-05-01T08:15:10.902Z,56.83
2023-05-01T08:16:03.505Z,54.82
2023-05-01T08:16:55.452Z,54.85
2023-05-01T08:17:47.055Z,56.71
2023-05-01T08:18:38.547Z,56.22
2023-05-01T08:19:32.163Z,54.21
2023-05-01T08:20:23.636Z,54.69
2023-05-01T08:21:15.088Z,60.11
2023-05-01T08:22:08.796Z,57.67
2023-05-01T08:23:00.451Z,58.47
2023-05-01T08:23:56.323Z,58.83
2023-05-01T08:24:47.985Z,58.80
2023-05-01T08:25:39.450Z,54.10
2023-05-01T08:26:30.932Z,56.23
2023-05-01T08:27:22.441Z,57.02
2023-05-01T08:28:15.001Z,58.22
2023-05-01T08:29:06.595Z,56.61
2023-05-01T08:29:58.221Z,58.78
2023-05-01T08:30:50.184Z,57.74
2023-05-01T08:31:43.183Z,56.05
2023-05-01T08:32:37.304Z,58.33
2023-05-01T08:33:28.970Z,60.23
2023-05-01T08:34:20.548Z,57.99
2023-05-01T08:35:11.976Z,56.66
2023-05-01T08:36:03.651Z,57.67
2023-05-01T08:36:55.104Z,57.51
2023-05-01T08:37:46.556Z,57.33
2023-05-01T08:38:39.400Z,54.06
2023-05-01T08:39:30.882Z,56.85
2023-05-01T08:40:26.393Z,58.45
2023-05-01T08:41:22.336Z,58.02
2023-05-01T08:42:14.328Z,58.25
2023-05-01T08:43:06.012Z,52.97
2023-05-01T08:44:01.237Z,55.84
2023-05-01T08:44:54.415Z,57.26
2023-05-01T08:45:48.401Z,59.00
2023-05-01T08:47:09.340Z,57.30
2023-05-01T08:48:02.116Z,57.56
2023-05-01T08:48:59.220Z,56.30
2023-05-01T08:49:52.528Z,55.90
2023-05-01T08:50:46.965Z,54.06
2023-05-01T08:51:39.787Z,50.61
2023-05-01T08:52:33.388Z,54.95
2023-05-01T08:53:28.643Z,58.85
2023-05-01T08:54:20.780Z,55.08
2023-05-01T08:55:14.516Z,54.40
2023-05-01T08:56:07.996Z,56.43
2023-05-01T08:57:04.361Z,51.97
2023-05-01T08:58:00.007Z,50.23
2023-05-01T08:58:55.624Z,55.25
2023-05-01T08:59:48.361Z,53.48
2023-05-01T09:00:42.092Z,51.60
2023-05-01T09:01:34.014Z,53.87
2023-05-01T09:02:28.717Z,50.10
2023-05-01T09:03:21.563Z,51.60
2023-05-01T09:04:15.225Z,50.11
2023-05-01T09:05:08.266Z,52.52
2023-05-01T09:06:03.560Z,50.65
2023-05-01T09:06:56.449Z,54.70
2023-05-01T09:07:48.767Z,51.35
2023-05-01T09:08:40.638Z,54.02
2023-05-01T09:09:33.705Z,51.60
2023-05-01T09:10:27.395Z,50.74
2023-05-01T09:11:19.997Z,53.77
2023-05-01T09:12:26.257Z,55.77
2023-05-01T09:13:21.003Z,50.11
2023-05-01T09:14:12.698Z,49.59
2023-05-01T09:15:04.698Z,52.02
2023-05-01T09:15:56.367Z,50.47
2023-05-01T09:16:49.310Z,48.35
2023-05-01T09:17:45.589Z,48.44
2023-05-01T09:18:37.238Z,48.41
2023-05-01T09:19:28.932Z,49.56
2023-05-01T09:20:21.334Z,47.58
2023-05-01T09:21:13.466Z,48.76
2023-05-01T09:22:04.976Z,49.73
2023-05-01T09:22:59.345Z,49.73
2023-05-01T09:23:51.274Z,49.50
2023-05-01T09:24:43.904Z,52.66
2023-05-01T09:25:35.880Z,51.05
2023-05-01T09:26:27.551Z,48.61
2023-05-01T09:27:19.609Z,53.15
2023-05-01T09:28:11.345Z,52.69
2023-05-01T09:29:02.846Z,49.56
2023-05-01T09:29:54.433Z,51.25
2023-05-01T09:30:46.300Z,50.39
2023-05-01T09:31:37.911Z,49.32
2023-05-01T09:32:29.809Z,48.58
2023-05-01T09:33:23.816Z,50.99
2023-05-01T09:34:15.357Z,46.49
2023-05-01T09:35:13.423Z,47.21
2023-05-01T09:36:05.380Z,47.53
2023-05-01T09:36:56.812Z,48.65
2023-05-01T09:37:50.016Z,48.14
2023-05-01T09:38:43.430Z,48.29
2023-05-01T09:39:35.106Z,49.28
2023-05-01T09:40:31.681Z,49.24
2023-05-01T09:41:24.113Z,48.48
2023-05-01T09:42:24.159Z,47.32
2023-05-01T09:43:25.854Z,48.08
2023-05-01T09:44:21.126Z,47.30
2023-05-01T09:45:14.690Z,47.27
2023-05-01T09:46:10.795Z,49.54
2023-05-01T09:47:03.882Z,50.10
2023-05-01T09:48:10.849Z,47.81
2023-05-01T09:49:03.346Z,47.93
2023-05-01T09:49:57.441Z,49.09
2023-05-01T09:50:49.320Z,49.44
2023-05-01T09:51:42.368Z,49.84
2023-05-01T09:52:33.981Z,48.03
2023-05-01T09:53:39.289Z,50.67
2023-05-01T09:54:30.815Z,49.30
2023-05-01T09:55:25.440Z,51.08
2023-05-01T09:56:19.480Z,56.00
2023-05-01T09:57:11.044Z,51.97
2023-05-01T09:58:02.597Z,50.67
2023-05-01T09:58:56.036Z,53.66
2023-05-01T10:00:08.130Z,47.01
2023-05-01T10:01:00.822Z,46.02
2023-05-01T10:01:54.717Z,53.87
2023-05-01T10:02:50.749Z,51.03
2023-05-01T10:03:45.453Z,48.79
2023-05-01T10:04:38.581Z,47.95
2023-05-01T10:05:44.766Z,47.48
2023-05-01T10:06:36.859Z,48.04
2023-05-01T10:07:29.251Z,49.43
2023-05-01T10:08:20.881Z,49.70
2023-05-01T10:09:27.652Z,56.81
2023-05-01T10:10:23.744Z,48.13
2023-05-01T10:11:15.908Z,48.37
2023-05-01T10:12:07.656Z,47.28
2023-05-01T10:13:13.154Z,51.43
2023-05-01T10:14:11.098Z,50.69
2023-05-01T10:15:17.370Z,51.25
2023-05-01T10:16:31.248Z,47.91
2023-05-01T10:17:23.321Z,55.42
2023-05-01T10:18:15.292Z,47.35
2023-05-01T10:19:07.642Z,47.73
2023-05-01T10:19:59.491Z,50.36
2023-05-01T10:20:51.531Z,46.76
2023-05-01T10:21:45.544Z,46.72
2023-05-01T10:22:37.381Z,46.37
2023-05-01T10:23:31.837Z,44.97
2023-05-01T10:24:23.624Z,49.45
2023-05-01T10:25:17.607Z,50.66
2023-05-01T10:26:13.872Z,46.16
2023-05-01T10:27:07.810Z,48.73
2023-05-01T10:28:19.063Z,52.25
2023-05-01T10:29:13.799Z,46.94
2023-05-01T10:30:06.215Z,51.85
2023-05-01T10:30:58.327Z,48.79
2023-05-01T10:31:52.274Z,51.16
2023-05-01T10:32:43.969Z,50.59
2023-05-01T10:33:35.840Z,47.99
2023-05-01T10:34:34.753Z,48.32
2023-05-01T10:35:34.019Z,47.83
2023-05-01T10:36:40.661Z,49.48
2023-05-01T10:37:51.241Z,48.92
2023-05-01T10:38:48.227Z,48.50
2023-05-01T10:39:39.992Z,50.59
2023-05-01T10:40:40.747Z,48.03
2023-05-01T10:42:11.033Z,46.38
2023-05-01T10:43:20.920Z,48.39
2023-05-01T10:44:26.936Z,47.65
2023-05-01T10:45:29.785Z,48.27
2023-05-01T10:46:27.575Z,45.97
2023-05-01T10:47:25.350Z,49.45
2023-05-01T10:48:39.250Z,49.03
2023-05-01T10:50:04.435Z,51.57
2023-05-01T10:51:10.411Z,43.53
2023-05-01T10:52:03.653Z,50.32
2023-05-01T10:53:14.336Z,47.69
2023-05-01T10:54:16.936Z,48.92
2023-05-01T10:55:33.034Z,49.57
2023-05-01T10:56:25.310Z,45.81
2023-05-01T10:57:44.279Z,48.77
2023-05-01T10:58:40.936Z,51.23
2023-05-01T11:00:01.739Z,45.86
2023-05-01T11:01:29.936Z,49.06
2023-05-01T11:02:26.498Z,52.51
2023-05-01T11:03:20.893Z,47.16
2023-05-01T11:04:27.219Z,49.75
2023-05-01T11:05:28.903Z,51.08
2023-05-01T11:06:28.034Z,50.55
2023-05-01T11:07:22.195Z,48.71
2023-05-01T11:08:32.705Z,41.47
2023-05-01T11:09:46.943Z,45.91
2023-05-01T11:10:38.389Z,48.62
2023-05-01T11:11:29.765Z,45.71
2023-05-01T11:12:46.223Z,46.87
2023-05-01T11:13:55.034Z,43.03
2023-05-01T11:15:03.615Z,43.63
2023-05-01T11:15:55.470Z,42.89
2023-05-01T11:16:48.339Z,45.03
2023-05-01T11:17:40.213Z,46.77
2023-05-01T11:18:45.825Z,46.22
2023-05-01T11:19:40.291Z,45.00
2023-05-01T11:20:37.594Z,46.69
2023-05-01T11:21:36.569Z,42.88
2023-05-01T11:22:28.229Z,44.13
2023-05-01T11:23:21.657Z,42.29
2023-05-01T11:24:13.172Z,42.58
2023-05-01T11:25:19.212Z,47.95
2023-05-01T11:26:11.489Z,47.56
2023-05-01T11:27:04.920Z,41.42
2023-05-01T11:27:58.639Z,42.02
2023-05-01T11:28:55.119Z,43.53
2023-05-01T11:29:49.730Z,40.19
2023-05-01T11:30:42.203Z,48.14
2023-05-01T11:31:34.437Z,44.04
2023-05-01T11:32:30.048Z,40.80
2023-05-01T11:33:25.686Z,41.75
2023-05-01T11:34:18.152Z,42.24
2023-05-01T11:35:19.209Z,39.85
2023-05-01T11:36:10.838Z,43.75
2023-05-01T11:37:02.340Z,42.61
2023-05-01T11:37:56.758Z,41.63
2023-05-01T11:38:58.416Z,44.07
2023-05-01T11:39:52.602Z,44.00
2023-05-01T11:40:45.056Z,45.46
2023-05-01T11:41:37.124Z,38.89
2023-05-01T11:42:28.615Z,45.46
2023-05-01T11:43:26.700Z,41.39
2023-05-01T11:44:18.924Z,39.91
2023-05-01T11:45:11.195Z,41.60
2023-05-01T11:46:03.927Z,42.67
2023-05-01T11:47:01.152Z,44.98
2023-05-01T11:47:53.836Z,42.90
2023-05-01T11:48:51.048Z,39.50
2023-05-01T11:49:42.997Z,42.14